sensor_id;sensor_type;location;lat;lon;timestamp;P1;durP1;ratioP1;P2;durP2;ratioP2
50789;SDS011;37287;47.554;7.844;2023-11-22T00:01:19;6.68;;;6.03;;
50789;SDS011;37287;47.554;7.844;2023-11-22T00:03:46;8.35;;;5.95;;
50789;SDS011;37287;47.554;7.844;2023-11-22T00:06:12;7.10;;;6.20;;
50789;SDS011;37287;47.554;7.844;2023-11-22T00:08:41;6.80;;;6.10;;
50789;SDS011;37287;47.554;7.844;2023-11-22T00:11:10;6.43;;;5.72;;
50789;SDS011;37287;47.554;7.844;2023-11-22T00:13:36;6.55;;;5.57;;
50789;SDS011;37287;47.554;7.844;2023-11-22T00:16:05;6.28;;;5.63;;
50789;SDS011;37287;47.554;7.844;2023-11-22T00:18:35;7.45;;;6.15;;
50789;SDS011;37287;47.554;7.844;2023-11-22T00:21:05;6.30;;;5.65;;
50789;SDS011;37287;47.554;7.844;2023-11-22T00:23:31;7.53;;;6.53;;
50789;SDS011;37287;47.554;7.844;2023-11-22T00:25:59;7.03;;;6.18;;
50789;SDS011;37287;47.554;7.844;2023-11-22T00:28:25;7.65;;;5.93;;
50789;SDS011;37287;47.554;7.844;2023-11-22T00:30:53;7.60;;;6.50;;
50789;SDS011;37287;47.554;7.844;2023-11-22T00:33:22;8.85;;;7.40;;
50789;SDS011;37287;47.554;7.844;2023-11-22T00:35:49;8.25;;;6.88;;
50789;SDS011;37287;47.554;7.844;2023-11-22T00:38:18;8.57;;;7.30;;
50789;SDS011;37287;47.554;7.844;2023-11-22T00:40:45;8.75;;;6.88;;
50789;SDS011;37287;47.554;7.844;2023-11-22T00:43:11;7.32;;;6.15;;
50789;SDS011;37287;47.554;7.844;2023-11-22T00:45:42;9.30;;;6.93;;
50789;SDS011;37287;47.554;7.844;2023-11-22T00:48:09;7.28;;;6.45;;
50789;SDS011;37287;47.554;7.844;2023-11-22T00:50:36;9.27;;;7.05;;
50789;SDS011;37287;47.554;7.844;2023-11-22T00:53:04;8.23;;;6.60;;
50789;SDS011;37287;47.554;7.844;2023-11-22T00:55:30;7.20;;;5.95;;
50789;SDS011;37287;47.554;7.844;2023-11-22T00:57:57;7.22;;;5.78;;
50789;SDS011;37287;47.554;7.844;2023-11-22T01:00:30;6.65;;;5.90;;
50789;SDS011;37287;47.554;7.844;2023-11-22T01:02:57;7.10;;;6.00;;
50789;SDS011;37287;47.554;7.844;2023-11-22T01:05:24;6.53;;;5.80;;
50789;SDS011;37287;47.554;7.844;2023-11-22T01:07:51;7.20;;;6.13;;
50789;SDS011;37287;47.554;7.844;2023-11-22T01:10:18;6.75;;;5.78;;
50789;SDS011;37287;47.554;7.844;2023-11-22T01:12:44;7.88;;;6.30;;
50789;SDS011;37287;47.554;7.844;2023-11-22T01:15:11;7.18;;;5.75;;
50789;SDS011;37287;47.554;7.844;2023-11-22T01:17:37;7.05;;;5.38;;
50789;SDS011;37287;47.554;7.844;2023-11-22T01:20:04;8.82;;;6.30;;
50789;SDS011;37287;47.554;7.844;2023-11-22T01:22:38;7.32;;;6.22;;
50789;SDS011;37287;47.554;7.844;2023-11-22T01:25:05;6.53;;;5.80;;
50789;SDS011;37287;47.554;7.844;2023-11-22T01:27:32;6.57;;;5.60;;
50789;SDS011;37287;47.554;7.844;2023-11-22T01:30:00;9.88;;;6.03;;
50789;SDS011;37287;47.554;7.844;2023-11-22T01:32:30;5.97;;;5.38;;
50789;SDS011;37287;47.554;7.844;2023-11-22T01:34:56;7.15;;;5.97;;
50789;SDS011;37287;47.554;7.844;2023-11-22T01:37:27;6.18;;;5.43;;
50789;SDS011;37287;47.554;7.844;2023-11-22T01:39:55;6.85;;;5.95;;
50789;SDS011;37287;47.554;7.844;2023-11-22T01:42:22;8.73;;;7.20;;
50789;SDS011;37287;47.554;7.844;2023-11-22T01:44:50;7.93;;;7.00;;
50789;SDS011;37287;47.554;7.844;2023-11-22T01:47:19;9.30;;;6.60;;
50789;SDS011;37287;47.554;7.844;2023-11-22T01:49:45;12.20;;;8.18;;
50789;SDS011;37287;47.554;7.844;2023-11-22T01:52:18;13.55;;;8.95;;
50789;SDS011;37287;47.554;7.844;2023-11-22T01:54:44;11.32;;;8.40;;
50789;SDS011;37287;47.554;7.844;2023-11-22T01:57:11;11.98;;;9.10;;
50789;SDS011;37287;47.554;7.844;2023-11-22T01:59:38;13.65;;;9.25;;
50789;SDS011;37287;47.554;7.844;2023-11-22T02:02:06;11.68;;;8.93;;
50789;SDS011;37287;47.554;7.844;2023-11-22T02:04:35;12.77;;;9.45;;
50789;SDS011;37287;47.554;7.844;2023-11-22T02:07:03;12.68;;;9.32;;
50789;SDS011;37287;47.554;7.844;2023-11-22T02:09:30;11.95;;;8.98;;
50789;SDS011;37287;47.554;7.844;2023-11-22T02:11:57;12.18;;;8.95;;
50789;SDS011;37287;47.554;7.844;2023-11-22T02:14:24;10.75;;;8.57;;
50789;SDS011;37287;47.554;7.844;2023-11-22T02:16:51;11.10;;;8.45;;
50789;SDS011;37287;47.554;7.844;2023-11-22T02:19:20;10.40;;;8.88;;
50789;SDS011;37287;47.554;7.844;2023-11-22T02:21:47;11.60;;;8.00;;
50789;SDS011;37287;47.554;7.844;2023-11-22T02:24:14;9.30;;;8.13;;
50789;SDS011;37287;47.554;7.844;2023-11-22T02:26:44;11.70;;;8.32;;
50789;SDS011;37287;47.554;7.844;2023-11-22T02:29:13;10.02;;;8.23;;
50789;SDS011;37287;47.554;7.844;2023-11-22T02:31:41;12.27;;;7.82;;
50789;SDS011;37287;47.554;7.844;2023-11-22T02:34:09;10.02;;;7.60;;
50789;SDS011;37287;47.554;7.844;2023-11-22T02:36:36;10.88;;;7.80;;
50789;SDS011;37287;47.554;7.844;2023-11-22T02:39:03;10.93;;;7.55;;
50789;SDS011;37287;47.554;7.844;2023-11-22T02:41:30;11.43;;;8.53;;
50789;SDS011;37287;47.554;7.844;2023-11-22T02:43:57;9.98;;;7.70;;
50789;SDS011;37287;47.554;7.844;2023-11-22T02:46:23;13.65;;;7.97;;
50789;SDS011;37287;47.554;7.844;2023-11-22T02:48:50;11.05;;;8.02;;
50789;SDS011;37287;47.554;7.844;2023-11-22T02:51:18;8.77;;;7.50;;
50789;SDS011;37287;47.554;7.844;2023-11-22T02:53:45;9.43;;;7.47;;
50789;SDS011;37287;47.554;7.844;2023-11-22T02:56:12;11.18;;;7.70;;
50789;SDS011;37287;47.554;7.844;2023-11-22T02:58:40;11.50;;;7.95;;
50789;SDS011;37287;47.554;7.844;2023-11-22T03:01:11;13.52;;;8.82;;
50789;SDS011;37287;47.554;7.844;2023-11-22T03:03:37;13.75;;;9.60;;
50789;SDS011;37287;47.554;7.844;2023-11-22T03:06:04;10.05;;;8.27;;
50789;SDS011;37287;47.554;7.844;2023-11-22T03:08:31;11.05;;;8.63;;
50789;SDS011;37287;47.554;7.844;2023-11-22T03:10:58;14.48;;;9.35;;
50789;SDS011;37287;47.554;7.844;2023-11-22T03:13:27;14.43;;;9.15;;
50789;SDS011;37287;47.554;7.844;2023-11-22T03:15:54;14.23;;;9.23;;
50789;SDS011;37287;47.554;7.844;2023-11-22T03:18:21;14.63;;;9.25;;
50789;SDS011;37287;47.554;7.844;2023-11-22T03:20:50;13.85;;;10.15;;
50789;SDS011;37287;47.554;7.844;2023-11-22T03:23:21;11.48;;;9.10;;
50789;SDS011;37287;47.554;7.844;2023-11-22T03:25:47;13.13;;;10.40;;
50789;SDS011;37287;47.554;7.844;2023-11-22T03:28:16;12.02;;;9.20;;
50789;SDS011;37287;47.554;7.844;2023-11-22T03:30:43;12.23;;;9.45;;
50789;SDS011;37287;47.554;7.844;2023-11-22T03:33:10;13.00;;;9.45;;
50789;SDS011;37287;47.554;7.844;2023-11-22T03:35:37;13.60;;;10.02;;
50789;SDS011;37287;47.554;7.844;2023-11-22T03:38:04;12.63;;;9.43;;
50789;SDS011;37287;47.554;7.844;2023-11-22T03:40:31;15.63;;;10.60;;
50789;SDS011;37287;47.554;7.844;2023-11-22T03:43:00;12.93;;;9.80;;
50789;SDS011;37287;47.554;7.844;2023-11-22T03:45:27;11.13;;;8.20;;
50789;SDS011;37287;47.554;7.844;2023-11-22T03:47:54;12.13;;;9.15;;
50789;SDS011;37287;47.554;7.844;2023-11-22T03:50:22;13.90;;;9.63;;
50789;SDS011;37287;47.554;7.844;2023-11-22T03:52:49;16.45;;;10.30;;
50789;SDS011;37287;47.554;7.844;2023-11-22T03:55:15;16.48;;;10.93;;
50789;SDS011;37287;47.554;7.844;2023-11-22T03:57:48;15.45;;;9.65;;
50789;SDS011;37287;47.554;7.844;2023-11-22T04:00:15;15.80;;;10.20;;
50789;SDS011;37287;47.554;7.844;2023-11-22T04:02:42;17.95;;;11.30;;
50789;SDS011;37287;47.554;7.844;2023-11-22T04:05:11;22.63;;;12.27;;
50789;SDS011;37287;47.554;7.844;2023-11-22T04:07:38;15.30;;;10.85;;
50789;SDS011;37287;47.554;7.844;2023-11-22T04:10:09;16.02;;;11.38;;
50789;SDS011;37287;47.554;7.844;2023-11-22T04:12:40;13.95;;;10.20;;
50789;SDS011;37287;47.554;7.844;2023-11-22T04:15:07;15.20;;;10.95;;
50789;SDS011;37287;47.554;7.844;2023-11-22T04:17:37;14.55;;;10.05;;
50789;SDS011;37287;47.554;7.844;2023-11-22T04:20:09;13.57;;;10.25;;
50789;SDS011;37287;47.554;7.844;2023-11-22T04:22:37;17.85;;;11.55;;
50789;SDS011;37287;47.554;7.844;2023-11-22T04:25:04;18.17;;;10.98;;
50789;SDS011;37287;47.554;7.844;2023-11-22T04:27:33;16.92;;;11.07;;
50789;SDS011;37287;47.554;7.844;2023-11-22T04:30:00;13.38;;;10.65;;
50789;SDS011;37287;47.554;7.844;2023-11-22T04:32:26;14.75;;;9.77;;
50789;SDS011;37287;47.554;7.844;2023-11-22T04:34:57;13.93;;;10.30;;
50789;SDS011;37287;47.554;7.844;2023-11-22T04:37:25;13.73;;;9.80;;
50789;SDS011;37287;47.554;7.844;2023-11-22T04:39:53;12.98;;;10.15;;
50789;SDS011;37287;47.554;7.844;2023-11-22T04:42:26;13.07;;;10.45;;
50789;SDS011;37287;47.554;7.844;2023-11-22T04:44:56;14.50;;;10.73;;
50789;SDS011;37287;47.554;7.844;2023-11-22T04:47:23;15.63;;;10.23;;
50789;SDS011;37287;47.554;7.844;2023-11-22T04:49:50;15.07;;;10.52;;
50789;SDS011;37287;47.554;7.844;2023-11-22T04:52:16;14.75;;;11.10;;
50789;SDS011;37287;47.554;7.844;2023-11-22T04:54:43;17.42;;;12.25;;
50789;SDS011;37287;47.554;7.844;2023-11-22T04:57:11;16.02;;;11.02;;
50789;SDS011;37287;47.554;7.844;2023-11-22T04:59:38;16.30;;;11.68;;
50789;SDS011;37287;47.554;7.844;2023-11-22T05:02:05;15.82;;;11.35;;
50789;SDS011;37287;47.554;7.844;2023-11-22T05:04:37;18.02;;;10.77;;
50789;SDS011;37287;47.554;7.844;2023-11-22T05:07:04;16.25;;;10.93;;
50789;SDS011;37287;47.554;7.844;2023-11-22T05:09:30;13.77;;;10.05;;
50789;SDS011;37287;47.554;7.844;2023-11-22T05:11:59;17.88;;;10.98;;
50789;SDS011;37287;47.554;7.844;2023-11-22T05:14:25;14.88;;;10.68;;
50789;SDS011;37287;47.554;7.844;2023-11-22T05:16:53;13.48;;;10.43;;
50789;SDS011;37287;47.554;7.844;2023-11-22T05:19:19;17.83;;;11.23;;
50789;SDS011;37287;47.554;7.844;2023-11-22T05:21:48;15.30;;;11.52;;
50789;SDS011;37287;47.554;7.844;2023-11-22T05:24:14;15.48;;;10.65;;
50789;SDS011;37287;47.554;7.844;2023-11-22T05:26:41;13.05;;;10.00;;
50789;SDS011;37287;47.554;7.844;2023-11-22T05:29:08;13.63;;;10.38;;
50789;SDS011;37287;47.554;7.844;2023-11-22T05:31:36;12.95;;;9.88;;
50789;SDS011;37287;47.554;7.844;2023-11-22T05:34:05;13.32;;;10.68;;
50789;SDS011;37287;47.554;7.844;2023-11-22T05:36:32;12.63;;;9.93;;
50789;SDS011;37287;47.554;7.844;2023-11-22T05:38:58;11.75;;;9.48;;
50789;SDS011;37287;47.554;7.844;2023-11-22T05:41:27;10.70;;;9.13;;
50789;SDS011;37287;47.554;7.844;2023-11-22T05:43:54;13.27;;;9.18;;
50789;SDS011;37287;47.554;7.844;2023-11-22T05:46:22;9.50;;;7.53;;
50789;SDS011;37287;47.554;7.844;2023-11-22T05:48:51;7.80;;;7.00;;
50789;SDS011;37287;47.554;7.844;2023-11-22T05:51:18;7.20;;;6.22;;
50789;SDS011;37287;47.554;7.844;2023-11-22T05:53:45;6.03;;;5.32;;
50789;SDS011;37287;47.554;7.844;2023-11-22T05:56:18;7.07;;;5.88;;
50789;SDS011;37287;47.554;7.844;2023-11-22T05:58:45;5.82;;;5.07;;
50789;SDS011;37287;47.554;7.844;2023-11-22T06:01:11;5.75;;;4.90;;
50789;SDS011;37287;47.554;7.844;2023-11-22T06:03:38;6.38;;;4.63;;
50789;SDS011;37287;47.554;7.844;2023-11-22T06:06:06;6.53;;;5.40;;
50789;SDS011;37287;47.554;7.844;2023-11-22T06:08:34;7.30;;;5.95;;
50789;SDS011;37287;47.554;7.844;2023-11-22T06:11:01;6.90;;;5.45;;
50789;SDS011;37287;47.554;7.844;2023-11-22T06:13:29;8.50;;;6.53;;
50789;SDS011;37287;47.554;7.844;2023-11-22T06:15:56;8.25;;;5.82;;
50789;SDS011;37287;47.554;7.844;2023-11-22T06:18:23;6.85;;;5.72;;
50789;SDS011;37287;47.554;7.844;2023-11-22T06:20:56;9.05;;;5.93;;
50789;SDS011;37287;47.554;7.844;2023-11-22T06:23:23;7.28;;;5.57;;
50789;SDS011;37287;47.554;7.844;2023-11-22T06:25:50;7.40;;;6.13;;
50789;SDS011;37287;47.554;7.844;2023-11-22T06:28:16;7.90;;;6.10;;
50789;SDS011;37287;47.554;7.844;2023-11-22T06:30:44;5.80;;;5.22;;
50789;SDS011;37287;47.554;7.844;2023-11-22T06:33:15;7.30;;;5.55;;
50789;SDS011;37287;47.554;7.844;2023-11-22T06:35:41;5.75;;;5.15;;
50789;SDS011;37287;47.554;7.844;2023-11-22T06:38:08;5.55;;;5.05;;
50789;SDS011;37287;47.554;7.844;2023-11-22T06:40:35;6.13;;;5.20;;
50789;SDS011;37287;47.554;7.844;2023-11-22T06:43:02;7.20;;;5.72;;
50789;SDS011;37287;47.554;7.844;2023-11-22T06:45:31;6.20;;;5.22;;
50789;SDS011;37287;47.554;7.844;2023-11-22T06:47:59;6.70;;;5.93;;
50789;SDS011;37287;47.554;7.844;2023-11-22T06:50:26;6.13;;;5.53;;
50789;SDS011;37287;47.554;7.844;2023-11-22T06:52:53;7.15;;;6.00;;
50789;SDS011;37287;47.554;7.844;2023-11-22T06:55:26;6.75;;;6.05;;
50789;SDS011;37287;47.554;7.844;2023-11-22T06:57:53;13.27;;;6.80;;
50789;SDS011;37287;47.554;7.844;2023-11-22T07:00:20;7.65;;;5.95;;
50789;SDS011;37287;47.554;7.844;2023-11-22T07:02:47;9.10;;;6.20;;
50789;SDS011;37287;47.554;7.844;2023-11-22T07:05:14;7.82;;;5.82;;
50789;SDS011;37287;47.554;7.844;2023-11-22T07:07:41;8.40;;;5.82;;
50789;SDS011;37287;47.554;7.844;2023-11-22T07:10:08;6.75;;;5.22;;
50789;SDS011;37287;47.554;7.844;2023-11-22T07:12:34;6.07;;;5.47;;
50789;SDS011;37287;47.554;7.844;2023-11-22T07:15:01;5.78;;;5.20;;
50789;SDS011;37287;47.554;7.844;2023-11-22T07:17:35;5.60;;;5.00;;
50789;SDS011;37287;47.554;7.844;2023-11-22T07:20:08;10.40;;;5.28;;
50789;SDS011;37287;47.554;7.844;2023-11-22T07:22:39;7.50;;;4.63;;
50789;SDS011;37287;47.554;7.844;2023-11-22T07:25:09;5.03;;;4.30;;
50789;SDS011;37287;47.554;7.844;2023-11-22T07:30:12;4.70;;;4.15;;
50789;SDS011;37287;47.554;7.844;2023-11-22T07:32:40;3.70;;;3.40;;
50789;SDS011;37287;47.554;7.844;2023-11-22T07:35:13;4.38;;;3.97;;
50789;SDS011;37287;47.554;7.844;2023-11-22T07:37:39;4.00;;;3.58;;
50789;SDS011;37287;47.554;7.844;2023-11-22T07:40:08;4.97;;;3.80;;
50789;SDS011;37287;47.554;7.844;2023-11-22T07:42:36;4.13;;;3.45;;
50789;SDS011;37287;47.554;7.844;2023-11-22T07:45:03;6.53;;;3.83;;
50789;SDS011;37287;47.554;7.844;2023-11-22T07:47:30;3.70;;;3.40;;
50789;SDS011;37287;47.554;7.844;2023-11-22T07:49:59;4.78;;;3.33;;
50789;SDS011;37287;47.554;7.844;2023-11-22T07:52:27;3.92;;;3.60;;
50789;SDS011;37287;47.554;7.844;2023-11-22T07:54:56;5.65;;;3.63;;
50789;SDS011;37287;47.554;7.844;2023-11-22T07:57:23;3.80;;;3.45;;
50789;SDS011;37287;47.554;7.844;2023-11-22T07:59:50;4.88;;;3.70;;
50789;SDS011;37287;47.554;7.844;2023-11-22T08:02:21;8.98;;;3.45;;
50789;SDS011;37287;47.554;7.844;2023-11-22T08:04:48;6.22;;;3.65;;
50789;SDS011;37287;47.554;7.844;2023-11-22T08:07:16;4.10;;;3.70;;
50789;SDS011;37287;47.554;7.844;2023-11-22T08:09:43;3.45;;;3.15;;
50789;SDS011;37287;47.554;7.844;2023-11-22T08:12:10;6.70;;;4.15;;
50789;SDS011;37287;47.554;7.844;2023-11-22T08:14:39;2.97;;;2.60;;
50789;SDS011;37287;47.554;7.844;2023-11-22T08:17:06;5.07;;;3.65;;
50789;SDS011;37287;47.554;7.844;2023-11-22T08:19:35;5.63;;;3.30;;
50789;SDS011;37287;47.554;7.844;2023-11-22T08:22:01;5.80;;;3.10;;
50789;SDS011;37287;47.554;7.844;2023-11-22T08:24:30;2.83;;;2.63;;
50789;SDS011;37287;47.554;7.844;2023-11-22T08:26:58;3.28;;;2.97;;
50789;SDS011;37287;47.554;7.844;2023-11-22T08:29:25;3.63;;;3.30;;
50789;SDS011;37287;47.554;7.844;2023-11-22T08:31:51;3.58;;;3.10;;
50789;SDS011;37287;47.554;7.844;2023-11-22T08:34:18;3.67;;;3.38;;
50789;SDS011;37287;47.554;7.844;2023-11-22T08:36:45;6.10;;;3.70;;
50789;SDS011;37287;47.554;7.844;2023-11-22T08:39:11;4.70;;;3.83;;
50789;SDS011;37287;47.554;7.844;2023-11-22T08:41:42;5.47;;;4.18;;
50789;SDS011;37287;47.554;7.844;2023-11-22T08:44:09;5.65;;;4.75;;
50789;SDS011;37287;47.554;7.844;2023-11-22T08:46:36;6.85;;;4.90;;
50789;SDS011;37287;47.554;7.844;2023-11-22T08:49:04;4.40;;;4.00;;
50789;SDS011;37287;47.554;7.844;2023-11-22T08:51:31;5.05;;;3.83;;
50789;SDS011;37287;47.554;7.844;2023-11-22T08:54:00;5.38;;;4.55;;
50789;SDS011;37287;47.554;7.844;2023-11-22T08:56:27;5.55;;;4.47;;
50789;SDS011;37287;47.554;7.844;2023-11-22T08:58:53;4.47;;;4.07;;
50789;SDS011;37287;47.554;7.844;2023-11-22T09:01:21;5.80;;;4.10;;
50789;SDS011;37287;47.554;7.844;2023-11-22T09:03:48;4.65;;;4.22;;
50789;SDS011;37287;47.554;7.844;2023-11-22T09:06:16;5.25;;;4.18;;
50789;SDS011;37287;47.554;7.844;2023-11-22T09:08:43;4.43;;;4.03;;
50789;SDS011;37287;47.554;7.844;2023-11-22T09:11:14;4.60;;;3.85;;
50789;SDS011;37287;47.554;7.844;2023-11-22T09:13:42;4.20;;;3.80;;
50789;SDS011;37287;47.554;7.844;2023-11-22T09:16:09;5.22;;;4.50;;
50789;SDS011;37287;47.554;7.844;2023-11-22T09:18:40;5.68;;;5.18;;
50789;SDS011;37287;47.554;7.844;2023-11-22T09:21:07;7.07;;;5.57;;
50789;SDS011;37287;47.554;7.844;2023-11-22T09:23:43;5.75;;;4.85;;
50789;SDS011;37287;47.554;7.844;2023-11-22T09:26:11;5.95;;;5.30;;
50789;SDS011;37287;47.554;7.844;2023-11-22T09:28:38;8.15;;;6.28;;
50789;SDS011;37287;47.554;7.844;2023-11-22T09:31:05;7.47;;;6.18;;
50789;SDS011;37287;47.554;7.844;2023-11-22T09:33:33;8.10;;;6.00;;
50789;SDS011;37287;47.554;7.844;2023-11-22T09:35:59;6.65;;;5.95;;
50789;SDS011;37287;47.554;7.844;2023-11-22T09:38:26;7.82;;;6.30;;
50789;SDS011;37287;47.554;7.844;2023-11-22T09:40:54;6.20;;;5.45;;
50789;SDS011;37287;47.554;7.844;2023-11-22T09:43:23;8.00;;;6.70;;
50789;SDS011;37287;47.554;7.844;2023-11-22T09:45:52;7.65;;;5.53;;
50789;SDS011;37287;47.554;7.844;2023-11-22T09:48:28;7.45;;;5.95;;
50789;SDS011;37287;47.554;7.844;2023-11-22T09:51:04;7.90;;;6.88;;
50789;SDS011;37287;47.554;7.844;2023-11-22T09:53:51;7.53;;;6.55;;
50789;SDS011;37287;47.554;7.844;2023-11-22T09:56:40;8.70;;;6.53;;
50789;SDS011;37287;47.554;7.844;2023-11-22T09:59:18;11.30;;;6.32;;
50789;SDS011;37287;47.554;7.844;2023-11-22T10:02:06;8.90;;;7.15;;
50789;SDS011;37287;47.554;7.844;2023-11-22T10:04:37;7.45;;;6.55;;
50789;SDS011;37287;47.554;7.844;2023-11-22T10:07:04;8.02;;;6.22;;
50789;SDS011;37287;47.554;7.844;2023-11-22T10:09:31;7.78;;;6.63;;
50789;SDS011;37287;47.554;7.844;2023-11-22T10:11:58;7.07;;;6.38;;
50789;SDS011;37287;47.554;7.844;2023-11-22T10:14:27;8.52;;;7.45;;
50789;SDS011;37287;47.554;7.844;2023-11-22T10:16:58;11.77;;;7.85;;
50789;SDS011;37287;47.554;7.844;2023-11-22T10:19:27;9.32;;;7.05;;
50789;SDS011;37287;47.554;7.844;2023-11-22T10:22:04;8.93;;;7.40;;
50789;SDS011;37287;47.554;7.844;2023-11-22T10:27:00;8.93;;;6.32;;
50789;SDS011;37287;47.554;7.844;2023-11-22T10:29:28;6.72;;;5.65;;
50789;SDS011;37287;47.554;7.844;2023-11-22T10:31:55;9.27;;;6.63;;
50789;SDS011;37287;47.554;7.844;2023-11-22T10:34:23;10.82;;;8.75;;
50789;SDS011;37287;47.554;7.844;2023-11-22T10:36:51;10.77;;;7.40;;
50789;SDS011;37287;47.554;7.844;2023-11-22T10:39:20;10.23;;;8.13;;
50789;SDS011;37287;47.554;7.844;2023-11-22T10:41:48;10.43;;;9.32;;
50789;SDS011;37287;47.554;7.844;2023-11-22T10:44:17;9.25;;;7.40;;
50789;SDS011;37287;47.554;7.844;2023-11-22T10:46:48;8.95;;;7.93;;
50789;SDS011;37287;47.554;7.844;2023-11-22T10:49:17;9.25;;;7.82;;
50789;SDS011;37287;47.554;7.844;2023-11-22T10:51:49;9.32;;;8.13;;
50789;SDS011;37287;47.554;7.844;2023-11-22T10:54:20;8.20;;;7.40;;
50789;SDS011;37287;47.554;7.844;2023-11-22T10:56:51;9.27;;;6.90;;
50789;SDS011;37287;47.554;7.844;2023-11-22T10:59:23;8.45;;;7.13;;
50789;SDS011;37287;47.554;7.844;2023-11-22T11:01:54;7.10;;;6.40;;
50789;SDS011;37287;47.554;7.844;2023-11-22T11:04:31;9.25;;;7.60;;
50789;SDS011;37287;47.554;7.844;2023-11-22T11:07:02;7.25;;;6.15;;
50789;SDS011;37287;47.554;7.844;2023-11-22T11:09:33;14.75;;;5.88;;
50789;SDS011;37287;47.554;7.844;2023-11-22T11:12:02;7.10;;;5.80;;
50789;SDS011;37287;47.554;7.844;2023-11-22T11:14:34;7.05;;;6.35;;
50789;SDS011;37287;47.554;7.844;2023-11-22T11:17:01;7.75;;;5.82;;
50789;SDS011;37287;47.554;7.844;2023-11-22T11:19:28;7.97;;;7.22;;
50789;SDS011;37287;47.554;7.844;2023-11-22T11:21:59;6.75;;;5.97;;
50789;SDS011;37287;47.554;7.844;2023-11-22T11:24:27;7.63;;;6.10;;
50789;SDS011;37287;47.554;7.844;2023-11-22T11:26:56;6.25;;;5.65;;
50789;SDS011;37287;47.554;7.844;2023-11-22T11:29:33;8.55;;;6.82;;
50789;SDS011;37287;47.554;7.844;2023-11-22T11:32:03;6.07;;;5.47;;
50789;SDS011;37287;47.554;7.844;2023-11-22T11:34:30;6.78;;;5.40;;
50789;SDS011;37287;47.554;7.844;2023-11-22T11:37:01;9.52;;;6.70;;
50789;SDS011;37287;47.554;7.844;2023-11-22T11:39:29;7.50;;;6.55;;
50789;SDS011;37287;47.554;7.844;2023-11-22T11:42:07;7.30;;;6.60;;
50789;SDS011;37287;47.554;7.844;2023-11-22T11:47:27;8.57;;;6.03;;
50789;SDS011;37287;47.554;7.844;2023-11-22T11:49:55;7.85;;;5.88;;
50789;SDS011;37287;47.554;7.844;2023-11-22T11:52:22;6.75;;;6.05;;
50789;SDS011;37287;47.554;7.844;2023-11-22T11:54:53;8.40;;;7.60;;
50789;SDS011;37287;47.554;7.844;2023-11-22T11:57:21;11.15;;;7.00;;
50789;SDS011;37287;47.554;7.844;2023-11-22T11:59:48;8.05;;;6.97;;
50789;SDS011;37287;47.554;7.844;2023-11-22T12:02:15;8.10;;;7.30;;
50789;SDS011;37287;47.554;7.844;2023-11-22T12:04:43;8.45;;;7.03;;
50789;SDS011;37287;47.554;7.844;2023-11-22T12:07:13;7.55;;;6.85;;
50789;SDS011;37287;47.554;7.844;2023-11-22T12:09:40;7.97;;;7.07;;
50789;SDS011;37287;47.554;7.844;2023-11-22T12:12:07;8.90;;;6.80;;
50789;SDS011;37287;47.554;7.844;2023-11-22T12:14:34;12.40;;;7.63;;
50789;SDS011;37287;47.554;7.844;2023-11-22T12:17:00;8.93;;;7.10;;
50789;SDS011;37287;47.554;7.844;2023-11-22T12:19:29;9.80;;;7.82;;
50789;SDS011;37287;47.554;7.844;2023-11-22T12:21:59;9.25;;;7.60;;
50789;SDS011;37287;47.554;7.844;2023-11-22T12:24:26;9.90;;;8.02;;
50789;SDS011;37287;47.554;7.844;2023-11-22T12:26:53;11.18;;;8.70;;
50789;SDS011;37287;47.554;7.844;2023-11-22T12:29:25;11.25;;;8.75;;
50789;SDS011;37287;47.554;7.844;2023-11-22T12:31:52;10.93;;;9.45;;
50789;SDS011;37287;47.554;7.844;2023-11-22T12:34:25;9.07;;;7.78;;
50789;SDS011;37287;47.554;7.844;2023-11-22T12:36:52;10.23;;;8.15;;
50789;SDS011;37287;47.554;7.844;2023-11-22T12:39:20;10.73;;;8.90;;
50789;SDS011;37287;47.554;7.844;2023-11-22T12:41:48;10.52;;;9.43;;
50789;SDS011;37287;47.554;7.844;2023-11-22T12:44:31;10.02;;;8.95;;
50789;SDS011;37287;47.554;7.844;2023-11-22T12:47:03;9.23;;;8.02;;
50789;SDS011;37287;47.554;7.844;2023-11-22T12:49:44;10.45;;;9.02;;
50789;SDS011;37287;47.554;7.844;2023-11-22T12:52:19;10.77;;;9.15;;
50789;SDS011;37287;47.554;7.844;2023-11-22T12:54:52;10.57;;;8.88;;
50789;SDS011;37287;47.554;7.844;2023-11-22T12:57:19;18.77;;;9.60;;
50789;SDS011;37287;47.554;7.844;2023-11-22T12:59:47;9.20;;;8.07;;
50789;SDS011;37287;47.554;7.844;2023-11-22T13:02:14;10.10;;;8.63;;
50789;SDS011;37287;47.554;7.844;2023-11-22T13:04:43;11.63;;;8.52;;
50789;SDS011;37287;47.554;7.844;2023-11-22T13:07:14;12.50;;;8.70;;
50789;SDS011;37287;47.554;7.844;2023-11-22T13:09:40;9.40;;;7.85;;
50789;SDS011;37287;47.554;7.844;2023-11-22T13:12:07;10.05;;;8.88;;
50789;SDS011;37287;47.554;7.844;2023-11-22T13:14:33;9.55;;;8.55;;
50789;SDS011;37287;47.554;7.844;2023-11-22T13:17:04;9.23;;;7.72;;
50789;SDS011;37287;47.554;7.844;2023-11-22T13:19:32;9.98;;;7.95;;
50789;SDS011;37287;47.554;7.844;2023-11-22T13:22:01;12.07;;;8.93;;
50789;SDS011;37287;47.554;7.844;2023-11-22T13:24:28;9.35;;;8.35;;
50789;SDS011;37287;47.554;7.844;2023-11-22T13:26:55;10.70;;;9.20;;
50789;SDS011;37287;47.554;7.844;2023-11-22T13:29:21;10.68;;;9.50;;
50789;SDS011;37287;47.554;7.844;2023-11-22T13:31:50;12.18;;;8.65;;
50789;SDS011;37287;47.554;7.844;2023-11-22T13:34:17;11.77;;;7.50;;
50789;SDS011;37287;47.554;7.844;2023-11-22T13:36:44;10.90;;;8.35;;
50789;SDS011;37287;47.554;7.844;2023-11-22T13:39:11;9.32;;;7.70;;
50789;SDS011;37287;47.554;7.844;2023-11-22T13:41:41;9.35;;;7.40;;
50789;SDS011;37287;47.554;7.844;2023-11-22T13:44:09;10.80;;;7.30;;
50789;SDS011;37287;47.554;7.844;2023-11-22T13:46:38;9.40;;;7.22;;
50789;SDS011;37287;47.554;7.844;2023-11-22T13:49:04;7.15;;;6.30;;
50789;SDS011;37287;47.554;7.844;2023-11-22T13:51:32;9.13;;;7.38;;
50789;SDS011;37287;47.554;7.844;2023-11-22T13:53:59;8.15;;;6.32;;
50789;SDS011;37287;47.554;7.844;2023-11-22T13:56:26;7.93;;;6.30;;
50789;SDS011;37287;47.554;7.844;2023-11-22T13:59:15;7.60;;;6.18;;
50789;SDS011;37287;47.554;7.844;2023-11-22T14:01:44;6.95;;;6.25;;
50789;SDS011;37287;47.554;7.844;2023-11-22T14:04:12;6.50;;;5.63;;
50789;SDS011;37287;47.554;7.844;2023-11-22T14:06:39;6.47;;;5.68;;
50789;SDS011;37287;47.554;7.844;2023-11-22T14:09:07;6.38;;;5.55;;
50789;SDS011;37287;47.554;7.844;2023-11-22T14:11:35;5.85;;;5.15;;
50789;SDS011;37287;47.554;7.844;2023-11-22T14:14:03;5.65;;;5.05;;
50789;SDS011;37287;47.554;7.844;2023-11-22T14:16:32;7.55;;;5.05;;
50789;SDS011;37287;47.554;7.844;2023-11-22T14:19:00;5.45;;;4.60;;
50789;SDS011;37287;47.554;7.844;2023-11-22T14:21:27;7.72;;;5.85;;
50789;SDS011;37287;47.554;7.844;2023-11-22T14:23:55;7.57;;;6.25;;
50789;SDS011;37287;47.554;7.844;2023-11-22T14:26:22;7.20;;;6.28;;
50789;SDS011;37287;47.554;7.844;2023-11-22T14:28:49;8.45;;;6.47;;
50789;SDS011;37287;47.554;7.844;2023-11-22T14:31:16;7.55;;;6.35;;
50789;SDS011;37287;47.554;7.844;2023-11-22T14:33:43;9.00;;;6.45;;
50789;SDS011;37287;47.554;7.844;2023-11-22T14:36:09;10.93;;;6.40;;
50789;SDS011;37287;47.554;7.844;2023-11-22T14:38:36;6.47;;;4.95;;
50789;SDS011;37287;47.554;7.844;2023-11-22T14:41:03;8.65;;;6.43;;
50789;SDS011;37287;47.554;7.844;2023-11-22T14:43:29;7.38;;;5.25;;
50789;SDS011;37287;47.554;7.844;2023-11-22T14:45:58;6.38;;;5.45;;
50789;SDS011;37287;47.554;7.844;2023-11-22T14:48:25;6.53;;;5.40;;
50789;SDS011;37287;47.554;7.844;2023-11-22T14:50:55;6.43;;;5.10;;
50789;SDS011;37287;47.554;7.844;2023-11-22T14:53:23;7.53;;;6.00;;
50789;SDS011;37287;47.554;7.844;2023-11-22T14:55:51;9.25;;;6.15;;